sensor_id;sensor_type;location;lat;lon;timestamp;P1;durP1;ratioP1;P2;durP2;ratioP2
34695;SDS011;20918;51.138;17.370;2022-10-28T00:02:03;176.93;;;24.72;;
34695;SDS011;20918;51.138;17.370;2022-10-28T00:05:04;35.68;;;24.87;;
34695;SDS011;20918;51.138;17.370;2022-10-28T00:08:11;190.88;;;24.57;;
34695;SDS011;20918;51.138;17.370;2022-10-28T00:14:29;38.83;;;25.68;;
34695;SDS011;20918;51.138;17.370;2022-10-28T00:17:30;41.45;;;26.85;;
34695;SDS011;20918;51.138;17.370;2022-10-28T00:20:31;33.50;;;26.17;;
34695;SDS011;20918;51.138;17.370;2022-10-28T00:23:32;33.78;;;26.97;;
34695;SDS011;20918;51.138;17.370;2022-10-28T00:26:36;43.60;;;29.20;;
34695;SDS011;20918;51.138;17.370;2022-10-28T00:29:42;40.38;;;30.27;;
34695;SDS011;20918;51.138;17.370;2022-10-28T00:32:43;41.53;;;29.37;;
34695;SDS011;20918;51.138;17.370;2022-10-28T00:35:44;114.15;;;31.17;;
34695;SDS011;20918;51.138;17.370;2022-10-28T00:38:53;46.37;;;27.98;;
34695;SDS011;20918;51.138;17.370;2022-10-28T00:42:01;43.87;;;30.43;;
34695;SDS011;20918;51.138;17.370;2022-10-28T00:45:05;44.10;;;31.82;;
34695;SDS011;20918;51.138;17.370;2022-10-28T00:48:11;53.40;;;34.50;;
34695;SDS011;20918;51.138;17.370;2022-10-28T00:51:13;55.85;;;31.62;;
34695;SDS011;20918;51.138;17.370;2022-10-28T00:54:16;79.97;;;30.90;;
34695;SDS011;20918;51.138;17.370;2022-10-28T00:57:23;298.10;;;31.52;;
34695;SDS011;20918;51.138;17.370;2022-10-28T01:00:29;248.43;;;31.33;;
34695;SDS011;20918;51.138;17.370;2022-10-28T01:03:30;181.97;;;29.02;;
34695;SDS011;20918;51.138;17.370;2022-10-28T01:06:32;244.15;;;28.77;;
34695;SDS011;20918;51.138;17.370;2022-10-28T01:09:35;152.78;;;28.40;;
34695;SDS011;20918;51.138;17.370;2022-10-28T01:13:06;234.12;;;28.17;;
34695;SDS011;20918;51.138;17.370;2022-10-28T01:27:20;43.33;;;28.38;;
34695;SDS011;20918;51.138;17.370;2022-10-28T01:34:59;45.40;;;28.47;;
34695;SDS011;20918;51.138;17.370;2022-10-28T01:45:17;44.48;;;30.90;;
34695;SDS011;20918;51.138;17.370;2022-10-28T01:48:22;45.90;;;32.50;;
34695;SDS011;20918;51.138;17.370;2022-10-28T01:51:34;43.08;;;30.48;;
34695;SDS011;20918;51.138;17.370;2022-10-28T01:54:40;44.38;;;31.00;;
34695;SDS011;20918;51.138;17.370;2022-10-28T01:57:46;52.33;;;29.32;;
34695;SDS011;20918;51.138;17.370;2022-10-28T02:00:50;43.83;;;28.90;;
34695;SDS011;20918;51.138;17.370;2022-10-28T02:03:51;82.90;;;29.80;;
34695;SDS011;20918;51.138;17.370;2022-10-28T02:06:55;210.13;;;27.77;;
34695;SDS011;20918;51.138;17.370;2022-10-28T02:13:14;179.90;;;25.68;;
34695;SDS011;20918;51.138;17.370;2022-10-28T02:16:21;112.65;;;24.55;;
34695;SDS011;20918;51.138;17.370;2022-10-28T02:19:42;46.83;;;27.65;;
34695;SDS011;20918;51.138;17.370;2022-10-28T02:22:56;40.50;;;27.70;;
34695;SDS011;20918;51.138;17.370;2022-10-28T02:26:37;62.10;;;28.07;;
34695;SDS011;20918;51.138;17.370;2022-10-28T02:29:45;204.20;;;33.33;;
34695;SDS011;20918;51.138;17.370;2022-10-28T02:32:56;294.73;;;31.20;;
34695;SDS011;20918;51.138;17.370;2022-10-28T02:36:04;311.73;;;31.35;;
34695;SDS011;20918;51.138;17.370;2022-10-28T02:39:06;83.30;;;25.27;;
34695;SDS011;20918;51.138;17.370;2022-10-28T02:42:08;297.45;;;28.12;;
34695;SDS011;20918;51.138;17.370;2022-10-28T02:45:15;289.27;;;24.57;;
34695;SDS011;20918;51.138;17.370;2022-10-28T02:48:21;301.88;;;26.68;;
34695;SDS011;20918;51.138;17.370;2022-10-28T02:51:42;324.05;;;28.10;;
34695;SDS011;20918;51.138;17.370;2022-10-28T02:54:58;327.43;;;26.90;;
34695;SDS011;20918;51.138;17.370;2022-10-28T02:58:03;169.17;;;25.55;;
34695;SDS011;20918;51.138;17.370;2022-10-28T03:01:05;150.97;;;25.15;;
34695;SDS011;20918;51.138;17.370;2022-10-28T03:04:07;281.27;;;28.38;;
34695;SDS011;20918;51.138;17.370;2022-10-28T03:07:08;209.12;;;25.50;;
34695;SDS011;20918;51.138;17.370;2022-10-28T03:10:09;258.30;;;23.45;;
34695;SDS011;20918;51.138;17.370;2022-10-28T03:13:10;273.70;;;25.72;;
34695;SDS011;20918;51.138;17.370;2022-10-28T03:16:11;390.77;;;29.55;;
34695;SDS011;20918;51.138;17.370;2022-10-28T03:19:12;93.72;;;25.27;;
34695;SDS011;20918;51.138;17.370;2022-10-28T03:22:13;201.75;;;27.58;;
34695;SDS011;20918;51.138;17.370;2022-10-28T03:25:14;229.28;;;28.25;;
34695;SDS011;20918;51.138;17.370;2022-10-28T03:28:15;162.88;;;27.13;;
34695;SDS011;20918;51.138;17.370;2022-10-28T03:31:17;250.47;;;32.33;;
34695;SDS011;20918;51.138;17.370;2022-10-28T03:34:18;290.32;;;29.95;;
34695;SDS011;20918;51.138;17.370;2022-10-28T03:37:19;377.55;;;33.08;;
34695;SDS011;20918;51.138;17.370;2022-10-28T03:40:20;174.45;;;31.60;;
34695;SDS011;20918;51.138;17.370;2022-10-28T03:43:23;195.82;;;37.05;;
34695;SDS011;20918;51.138;17.370;2022-10-28T03:46:24;130.05;;;40.33;;
34695;SDS011;20918;51.138;17.370;2022-10-28T03:49:25;223.68;;;46.30;;
34695;SDS011;20918;51.138;17.370;2022-10-28T03:52:26;173.68;;;37.10;;
34695;SDS011;20918;51.138;17.370;2022-10-28T03:55:27;146.00;;;41.90;;
34695;SDS011;20918;51.138;17.370;2022-10-28T03:58:28;147.10;;;43.35;;
34695;SDS011;20918;51.138;17.370;2022-10-28T04:01:30;80.07;;;38.42;;
34695;SDS011;20918;51.138;17.370;2022-10-28T04:04:31;78.97;;;34.20;;
34695;SDS011;20918;51.138;17.370;2022-10-28T04:07:32;52.83;;;33.58;;
34695;SDS011;20918;51.138;17.370;2022-10-28T04:10:33;66.92;;;32.70;;
34695;SDS011;20918;51.138;17.370;2022-10-28T04:13:34;257.98;;;37.98;;
34695;SDS011;20918;51.138;17.370;2022-10-28T04:16:35;69.35;;;30.60;;
34695;SDS011;20918;51.138;17.370;2022-10-28T04:19:38;73.92;;;31.10;;
34695;SDS011;20918;51.138;17.370;2022-10-28T04:22:39;84.20;;;29.82;;
34695;SDS011;20918;51.138;17.370;2022-10-28T04:25:40;203.37;;;29.48;;
34695;SDS011;20918;51.138;17.370;2022-10-28T04:28:41;101.45;;;28.77;;
34695;SDS011;20918;51.138;17.370;2022-10-28T04:31:42;61.70;;;26.80;;
34695;SDS011;20918;51.138;17.370;2022-10-28T04:34:43;147.30;;;27.70;;
34695;SDS011;20918;51.138;17.370;2022-10-28T04:37:44;264.15;;;27.70;;
34695;SDS011;20918;51.138;17.370;2022-10-28T04:40:46;39.03;;;29.27;;
34695;SDS011;20918;51.138;17.370;2022-10-28T04:43:51;69.00;;;35.83;;
34695;SDS011;20918;51.138;17.370;2022-10-28T04:46:54;41.90;;;29.92;;
34695;SDS011;20918;51.138;17.370;2022-10-28T04:49:56;175.12;;;39.63;;
34695;SDS011;20918;51.138;17.370;2022-10-28T04:52:57;142.55;;;31.07;;
34695;SDS011;20918;51.138;17.370;2022-10-28T04:55:58;87.37;;;22.87;;
34695;SDS011;20918;51.138;17.370;2022-10-28T04:59:01;95.28;;;22.82;;
34695;SDS011;20918;51.138;17.370;2022-10-28T05:02:02;90.72;;;36.08;;
34695;SDS011;20918;51.138;17.370;2022-10-28T05:05:03;80.83;;;27.37;;
34695;SDS011;20918;51.138;17.370;2022-10-28T05:08:05;51.00;;;25.48;;
34695;SDS011;20918;51.138;17.370;2022-10-28T05:11:07;83.60;;;28.90;;
34695;SDS011;20918;51.138;17.370;2022-10-28T05:14:11;46.80;;;27.30;;
34695;SDS011;20918;51.138;17.370;2022-10-28T05:17:12;44.60;;;32.58;;
34695;SDS011;20918;51.138;17.370;2022-10-28T05:20:14;64.35;;;31.50;;
34695;SDS011;20918;51.138;17.370;2022-10-28T05:23:17;57.67;;;30.20;;
34695;SDS011;20918;51.138;17.370;2022-10-28T05:26:18;67.17;;;29.40;;
34695;SDS011;20918;51.138;17.370;2022-10-28T05:29:24;104.10;;;30.62;;
34695;SDS011;20918;51.138;17.370;2022-10-28T05:32:25;43.52;;;29.37;;
34695;SDS011;20918;51.138;17.370;2022-10-28T05:35:27;44.35;;;28.73;;
34695;SDS011;20918;51.138;17.370;2022-10-28T05:38:29;41.48;;;31.10;;
34695;SDS011;20918;51.138;17.370;2022-10-28T05:41:30;43.68;;;32.17;;
34695;SDS011;20918;51.138;17.370;2022-10-28T05:44:32;47.35;;;31.82;;
34695;SDS011;20918;51.138;17.370;2022-10-28T05:47:33;42.65;;;31.60;;
34695;SDS011;20918;51.138;17.370;2022-10-28T05:50:34;45.92;;;31.42;;
34695;SDS011;20918;51.138;17.370;2022-10-28T05:53:35;54.05;;;31.45;;
34695;SDS011;20918;51.138;17.370;2022-10-28T05:56:36;42.25;;;28.57;;
34695;SDS011;20918;51.138;17.370;2022-10-28T05:59:38;37.65;;;28.87;;
34695;SDS011;20918;51.138;17.370;2022-10-28T06:02:39;60.35;;;30.48;;
34695;SDS011;20918;51.138;17.370;2022-10-28T06:05:42;40.80;;;30.23;;
34695;SDS011;20918;51.138;17.370;2022-10-28T06:08:45;36.38;;;28.50;;
34695;SDS011;20918;51.138;17.370;2022-10-28T06:11:46;40.00;;;28.75;;
34695;SDS011;20918;51.138;17.370;2022-10-28T06:14:47;35.65;;;27.40;;
34695;SDS011;20918;51.138;17.370;2022-10-28T06:17:49;40.35;;;27.77;;
34695;SDS011;20918;51.138;17.370;2022-10-28T06:20:54;45.45;;;29.35;;
34695;SDS011;20918;51.138;17.370;2022-10-28T06:23:57;35.30;;;27.55;;
34695;SDS011;20918;51.138;17.370;2022-10-28T06:26:58;39.58;;;28.98;;
34695;SDS011;20918;51.138;17.370;2022-10-28T06:30:00;35.10;;;27.10;;
34695;SDS011;20918;51.138;17.370;2022-10-28T06:33:01;28.83;;;23.50;;
34695;SDS011;20918;51.138;17.370;2022-10-28T06:36:02;28.55;;;22.35;;
34695;SDS011;20918;51.138;17.370;2022-10-28T06:39:04;34.38;;;23.98;;
34695;SDS011;20918;51.138;17.370;2022-10-28T06:42:05;30.60;;;23.50;;
34695;SDS011;20918;51.138;17.370;2022-10-28T06:45:06;28.02;;;22.20;;
34695;SDS011;20918;51.138;17.370;2022-10-28T06:48:08;30.20;;;21.75;;
34695;SDS011;20918;51.138;17.370;2022-10-28T06:51:10;29.42;;;21.12;;
34695;SDS011;20918;51.138;17.370;2022-10-28T06:54:13;31.93;;;20.62;;
34695;SDS011;20918;51.138;17.370;2022-10-28T06:57:14;28.15;;;20.55;;
34695;SDS011;20918;51.138;17.370;2022-10-28T07:00:15;24.25;;;19.23;;
34695;SDS011;20918;51.138;17.370;2022-10-28T07:03:17;29.55;;;20.62;;
34695;SDS011;20918;51.138;17.370;2022-10-28T07:06:19;26.93;;;20.90;;
34695;SDS011;20918;51.138;17.370;2022-10-28T07:09:20;25.27;;;19.30;;
34695;SDS011;20918;51.138;17.370;2022-10-28T07:12:21;29.98;;;20.55;;
34695;SDS011;20918;51.138;17.370;2022-10-28T07:15:22;30.12;;;20.72;;
34695;SDS011;20918;51.138;17.370;2022-10-28T07:18:24;25.02;;;18.23;;
34695;SDS011;20918;51.138;17.370;2022-10-28T07:21:27;26.33;;;19.02;;
34695;SDS011;20918;51.138;17.370;2022-10-28T07:24:29;25.85;;;18.92;;
34695;SDS011;20918;51.138;17.370;2022-10-28T07:27:30;23.87;;;17.10;;
34695;SDS011;20918;51.138;17.370;2022-10-28T07:30:31;26.17;;;19.23;;
34695;SDS011;20918;51.138;17.370;2022-10-28T07:33:32;24.82;;;17.57;;
34695;SDS011;20918;51.138;17.370;2022-10-28T07:36:33;24.30;;;17.90;;
34695;SDS011;20918;51.138;17.370;2022-10-28T07:39:34;26.27;;;17.60;;
34695;SDS011;20918;51.138;17.370;2022-10-28T07:42:35;26.37;;;17.62;;
34695;SDS011;20918;51.138;17.370;2022-10-28T07:45:36;26.23;;;17.12;;
34695;SDS011;20918;51.138;17.370;2022-10-28T07:48:38;22.60;;;16.07;;
34695;SDS011;20918;51.138;17.370;2022-10-28T07:51:40;22.35;;;15.48;;
34695;SDS011;20918;51.138;17.370;2022-10-28T07:54:40;21.30;;;15.45;;
34695;SDS011;20918;51.138;17.370;2022-10-28T07:57:42;21.15;;;14.85;;
34695;SDS011;20918;51.138;17.370;2022-10-28T08:00:43;19.23;;;15.18;;
34695;SDS011;20918;51.138;17.370;2022-10-28T08:03:44;18.62;;;14.10;;
34695;SDS011;20918;51.138;17.370;2022-10-28T08:06:49;16.82;;;13.90;;
34695;SDS011;20918;51.138;17.370;2022-10-28T08:09:51;21.25;;;14.20;;
34695;SDS011;20918;51.138;17.370;2022-10-28T08:12:54;18.27;;;13.08;;
34695;SDS011;20918;51.138;17.370;2022-10-28T08:15:57;20.60;;;14.38;;
34695;SDS011;20918;51.138;17.370;2022-10-28T08:18:58;17.30;;;13.05;;
34695;SDS011;20918;51.138;17.370;2022-10-28T08:21:59;20.82;;;14.33;;
34695;SDS011;20918;51.138;17.370;2022-10-28T08:25:01;21.23;;;14.60;;
34695;SDS011;20918;51.138;17.370;2022-10-28T08:28:03;17.35;;;12.03;;
34695;SDS011;20918;51.138;17.370;2022-10-28T08:31:07;19.15;;;13.90;;
34695;SDS011;20918;51.138;17.370;2022-10-28T08:34:09;19.48;;;13.00;;
34695;SDS011;20918;51.138;17.370;2022-10-28T08:37:10;22.13;;;13.22;;
34695;SDS011;20918;51.138;17.370;2022-10-28T08:40:11;18.87;;;11.88;;
34695;SDS011;20918;51.138;17.370;2022-10-28T08:43:38;17.30;;;12.20;;
34695;SDS011;20918;51.138;17.370;2022-10-28T08:50:30;16.57;;;11.97;;
34695;SDS011;20918;51.138;17.370;2022-10-28T08:53:46;17.92;;;11.97;;
34695;SDS011;20918;51.138;17.370;2022-10-28T08:56:53;16.37;;;11.12;;
34695;SDS011;20918;51.138;17.370;2022-10-28T08:59:59;17.12;;;11.33;;
34695;SDS011;20918;51.138;17.370;2022-10-28T09:06:23;14.90;;;11.10;;
34695;SDS011;20918;51.138;17.370;2022-10-28T09:09:24;12.13;;;9.73;;
34695;SDS011;20918;51.138;17.370;2022-10-28T09:12:31;16.73;;;8.68;;
34695;SDS011;20918;51.138;17.370;2022-10-28T09:15:59;16.82;;;9.35;;
34695;SDS011;20918;51.138;17.370;2022-10-28T09:19:19;20.67;;;11.23;;
34695;SDS011;20918;51.138;17.370;2022-10-28T09:25:47;16.87;;;8.33;;
34695;SDS011;20918;51.138;17.370;2022-10-28T09:29:24;10.20;;;8.00;;
34695;SDS011;20918;51.138;17.370;2022-10-28T09:32:42;11.78;;;7.22;;
34695;SDS011;20918;51.138;17.370;2022-10-28T09:35:53;9.73;;;6.80;;
34695;SDS011;20918;51.138;17.370;2022-10-28T09:38:56;8.83;;;6.67;;
34695;SDS011;20918;51.138;17.370;2022-10-28T09:42:00;8.33;;;6.05;;
34695;SDS011;20918;51.138;17.370;2022-10-28T09:45:04;8.75;;;6.87;;
34695;SDS011;20918;51.138;17.370;2022-10-28T09:55:14;9.95;;;6.25;;
34695;SDS011;20918;51.138;17.370;2022-10-28T09:58:22;9.95;;;7.03;;
34695;SDS011;20918;51.138;17.370;2022-10-28T10:01:23;7.05;;;5.85;;
34695;SDS011;20918;51.138;17.370;2022-10-28T10:04:26;12.78;;;6.15;;
34695;SDS011;20918;51.138;17.370;2022-10-28T10:07:37;10.28;;;7.17;;
34695;SDS011;20918;51.138;17.370;2022-10-28T10:10:53;10.72;;;7.42;;
34695;SDS011;20918;51.138;17.370;2022-10-28T10:14:02;8.33;;;5.97;;
34695;SDS011;20918;51.138;17.370;2022-10-28T10:17:11;8.48;;;5.50;;
34695;SDS011;20918;51.138;17.370;2022-10-28T10:20:17;9.47;;;6.30;;
34695;SDS011;20918;51.138;17.370;2022-10-28T10:23:21;9.98;;;5.62;;
34695;SDS011;20918;51.138;17.370;2022-10-28T10:26:34;8.13;;;5.80;;
34695;SDS011;20918;51.138;17.370;2022-10-28T10:29:36;10.20;;;5.90;;
34695;SDS011;20918;51.138;17.370;2022-10-28T10:32:47;12.68;;;5.05;;
34695;SDS011;20918;51.138;17.370;2022-10-28T10:35:52;11.57;;;5.80;;
34695;SDS011;20918;51.138;17.370;2022-10-28T10:39:03;6.47;;;4.83;;
34695;SDS011;20918;51.138;17.370;2022-10-28T10:42:13;10.53;;;4.90;;
34695;SDS011;20918;51.138;17.370;2022-10-28T10:45:21;9.45;;;5.50;;
34695;SDS011;20918;51.138;17.370;2022-10-28T10:48:25;11.83;;;6.15;;
34695;SDS011;20918;51.138;17.370;2022-10-28T10:51:29;9.43;;;6.22;;
34695;SDS011;20918;51.138;17.370;2022-10-28T10:54:30;14.75;;;7.83;;
34695;SDS011;20918;51.138;17.370;2022-10-28T10:57:34;7.92;;;4.90;;
34695;SDS011;20918;51.138;17.370;2022-10-28T11:00:35;9.40;;;4.53;;
34695;SDS011;20918;51.138;17.370;2022-10-28T11:03:40;7.72;;;4.25;;
34695;SDS011;20918;51.138;17.370;2022-10-28T11:06:56;8.55;;;4.08;;
34695;SDS011;20918;51.138;17.370;2022-10-28T11:09:57;9.38;;;4.90;;
34695;SDS011;20918;51.138;17.370;2022-10-28T11:13:02;6.22;;;4.62;;
34695;SDS011;20918;51.138;17.370;2022-10-28T11:16:06;8.33;;;4.58;;
34695;SDS011;20918;51.138;17.370;2022-10-28T11:19:21;10.32;;;4.90;;
34695;SDS011;20918;51.138;17.370;2022-10-28T11:25:48;12.58;;;5.10;;
34695;SDS011;20918;51.138;17.370;2022-10-28T11:42:56;8.13;;;4.53;;
34695;SDS011;20918;51.138;17.370;2022-10-28T11:57:21;6.62;;;3.98;;
34695;SDS011;20918;51.138;17.370;2022-10-28T12:03:49;7.55;;;3.90;;
34695;SDS011;20918;51.138;17.370;2022-10-28T12:10:37;7.25;;;3.72;;
34695;SDS011;20918;51.138;17.370;2022-10-28T12:17:34;9.70;;;3.62;;
34695;SDS011;20918;51.138;17.370;2022-10-28T12:24:36;7.08;;;2.40;;
34695;SDS011;20918;51.138;17.370;2022-10-28T12:27:42;6.50;;;2.67;;
34695;SDS011;20918;51.138;17.370;2022-10-28T12:30:47;7.37;;;3.10;;
34695;SDS011;20918;51.138;17.370;2022-10-28T12:33:52;4.50;;;2.70;;
34695;SDS011;20918;51.138;17.370;2022-10-28T12:37:05;9.28;;;2.87;;
34695;SDS011;20918;51.138;17.370;2022-10-28T12:40:15;9.45;;;3.02;;
34695;SDS011;20918;51.138;17.370;2022-10-28T12:43:24;5.85;;;3.02;;
34695;SDS011;20918;51.138;17.370;2022-10-28T12:50:19;6.92;;;2.42;;
34695;SDS011;20918;51.138;17.370;2022-10-28T12:57:09;12.55;;;4.15;;
34695;SDS011;20918;51.138;17.370;2022-10-28T13:00:15;9.73;;;3.27;;
34695;SDS011;20918;51.138;17.370;2022-10-28T13:03:20;3.75;;;2.92;;
34695;SDS011;20918;51.138;17.370;2022-10-28T13:06:29;6.25;;;2.95;;
34695;SDS011;20918;51.138;17.370;2022-10-28T13:13:32;8.53;;;3.62;;
34695;SDS011;20918;51.138;17.370;2022-10-28T13:17:04;12.05;;;2.33;;
34695;SDS011;20918;51.138;17.370;2022-10-28T13:27:57;8.55;;;2.65;;
34695;SDS011;20918;51.138;17.370;2022-10-28T13:31:02;9.50;;;3.45;;
34695;SDS011;20918;51.138;17.370;2022-10-28T13:34:03;4.45;;;2.47;;
34695;SDS011;20918;51.138;17.370;2022-10-28T13:37:05;6.30;;;2.58;;
34695;SDS011;20918;51.138;17.370;2022-10-28T13:56:37;6.58;;;2.95;;
34695;SDS011;20918;51.138;17.370;2022-10-28T13:59:49;7.70;;;3.27;;
34695;SDS011;20918;51.138;17.370;2022-10-28T14:03:04;10.35;;;4.10;;
34695;SDS011;20918;51.138;17.370;2022-10-28T14:06:29;6.60;;;2.80;;
34695;SDS011;20918;51.138;17.370;2022-10-28T14:09:31;8.13;;;3.27;;
34695;SDS011;20918;51.138;17.370;2022-10-28T14:12:34;5.87;;;2.70;;
34695;SDS011;20918;51.138;17.370;2022-10-28T14:15:41;8.00;;;3.22;;
34695;SDS011;20918;51.138;17.370;2022-10-28T14:18:50;8.43;;;2.92;;
34695;SDS011;20918;51.138;17.370;2022-10-28T14:28:55;7.42;;;3.70;;
34695;SDS011;20918;51.138;17.370;2022-10-28T14:31:56;11.55;;;5.30;;
34695;SDS011;20918;51.138;17.370;2022-10-28T14:48:46;17.00;;;8.23;;
34695;SDS011;20918;51.138;17.370;2022-10-28T14:51:52;22.37;;;9.90;;
34695;SDS011;20918;51.138;17.370;2022-10-28T14:54:55;15.48;;;7.53;;
34695;SDS011;20918;51.138;17.370;2022-10-28T15:01:28;7.87;;;4.05;;
34695;SDS011;20918;51.138;17.370;2022-10-28T15:04:28;8.40;;;4.05;;
34695;SDS011;20918;51.138;17.370;2022-10-28T15:07:29;16.12;;;6.30;;
34695;SDS011;20918;51.138;17.370;2022-10-28T15:10:31;15.60;;;5.90;;
34695;SDS011;20918;51.138;17.370;2022-10-28T15:13:33;8.63;;;3.67;;
34695;SDS011;20918;51.138;17.370;2022-10-28T15:16:35;6.53;;;3.92;;
34695;SDS011;20918;51.138;17.370;2022-10-28T15:19:52;8.98;;;2.98;;
34695;SDS011;20918;51.138;17.370;2022-10-28T15:23:09;6.35;;;3.62;;
34695;SDS011;20918;51.138;17.370;2022-10-28T15:26:15;8.55;;;4.00;;
34695;SDS011;20918;51.138;17.370;2022-10-28T15:29:17;9.05;;;4.03;;
34695;SDS011;20918;51.138;17.370;2022-10-28T15:38:36;6.83;;;3.50;;
34695;SDS011;20918;51.138;17.370;2022-10-28T15:41:49;8.43;;;3.30;;
34695;SDS011;20918;51.138;17.370;2022-10-28T15:44:56;8.50;;;3.70;;
34695;SDS011;20918;51.138;17.370;2022-10-28T15:48:00;7.45;;;4.40;;
34695;SDS011;20918;51.138;17.370;2022-10-28T15:51:13;10.48;;;4.55;;
34695;SDS011;20918;51.138;17.370;2022-10-28T15:54:21;11.48;;;5.22;;
34695;SDS011;20918;51.138;17.370;2022-10-28T15:57:20;8.80;;;4.72;;
34695;SDS011;20918;51.138;17.370;2022-10-28T16:00:25;12.98;;;4.85;;
34695;SDS011;20918;51.138;17.370;2022-10-28T16:03:40;11.97;;;5.35;;
34695;SDS011;20918;51.138;17.370;2022-10-28T16:06:54;16.27;;;9.80;;
34695;SDS011;20918;51.138;17.370;2022-10-28T16:10:02;31.68;;;21.42;;
34695;SDS011;20918;51.138;17.370;2022-10-28T16:13:04;38.40;;;22.17;;
34695;SDS011;20918;51.138;17.370;2022-10-28T16:16:11;22.98;;;11.80;;
34695;SDS011;20918;51.138;17.370;2022-10-28T16:19:24;8.05;;;5.70;;
34695;SDS011;20918;51.138;17.370;2022-10-28T16:22:30;11.25;;;5.20;;
34695;SDS011;20918;51.138;17.370;2022-10-28T16:25:33;12.35;;;7.55;;
34695;SDS011;20918;51.138;17.370;2022-10-28T16:28:35;13.70;;;7.08;;
34695;SDS011;20918;51.138;17.370;2022-10-28T16:31:36;13.22;;;7.15;;
34695;SDS011;20918;51.138;17.370;2022-10-28T16:34:38;13.88;;;6.00;;
34695;SDS011;20918;51.138;17.370;2022-10-28T16:37:44;11.65;;;6.15;;
34695;SDS011;20918;51.138;17.370;2022-10-28T16:40:46;10.05;;;4.87;;
34695;SDS011;20918;51.138;17.370;2022-10-28T16:43:47;8.65;;;4.50;;
34695;SDS011;20918;51.138;17.370;2022-10-28T16:46:48;11.43;;;6.12;;
34695;SDS011;20918;51.138;17.370;2022-10-28T16:49:49;14.73;;;5.35;;
34695;SDS011;20918;51.138;17.370;2022-10-28T16:52:52;11.43;;;5.33;;
34695;SDS011;20918;51.138;17.370;2022-10-28T16:56:08;11.28;;;5.40;;
34695;SDS011;20918;51.138;17.370;2022-10-28T16:59:09;7.87;;;4.05;;
34695;SDS011;20918;51.138;17.370;2022-10-28T17:05:34;12.55;;;6.75;;
34695;SDS011;20918;51.138;17.370;2022-10-28T17:08:37;11.95;;;4.87;;
34695;SDS011;20918;51.138;17.370;2022-10-28T17:11:38;10.82;;;8.25;;
34695;SDS011;20918;51.138;17.370;2022-10-28T17:14:42;12.93;;;5.53;;
34695;SDS011;20918;51.138;17.370;2022-10-28T17:17:47;13.88;;;5.92;;
34695;SDS011;20918;51.138;17.370;2022-10-28T17:21:02;11.33;;;5.58;;
34695;SDS011;20918;51.138;17.370;2022-10-28T17:27:14;21.10;;;8.53;;
34695;SDS011;20918;51.138;17.370;2022-10-28T17:30:16;32.48;;;17.07;;
34695;SDS011;20918;51.138;17.370;2022-10-28T17:33:18;22.82;;;12.65;;
34695;SDS011;20918;51.138;17.370;2022-10-28T17:36:20;17.05;;;7.83;;
34695;SDS011;20918;51.138;17.370;2022-10-28T17:39:22;15.25;;;6.65;;
34695;SDS011;20918;51.138;17.370;2022-10-28T17:42:26;20.35;;;7.65;;
34695;SDS011;20918;51.138;17.370;2022-10-28T17:45:28;16.97;;;9.55;;
34695;SDS011;20918;51.138;17.370;2022-10-28T17:48:29;26.20;;;12.40;;
34695;SDS011;20918;51.138;17.370;2022-10-28T17:51:30;16.23;;;8.68;;
34695;SDS011;20918;51.138;17.370;2022-10-28T17:54:33;13.53;;;7.58;;
34695;SDS011;20918;51.138;17.370;2022-10-28T17:57:34;9.15;;;5.70;;
34695;SDS011;20918;51.138;17.370;2022-10-28T18:00:37;11.60;;;7.53;;
34695;SDS011;20918;51.138;17.370;2022-10-28T18:03:38;13.28;;;7.30;;
34695;SDS011;20918;51.138;17.370;2022-10-28T18:06:43;17.57;;;11.12;;
34695;SDS011;20918;51.138;17.370;2022-10-28T18:09:46;24.07;;;13.10;;
34695;SDS011;20918;51.138;17.370;2022-10-28T18:12:50;15.40;;;7.95;;
34695;SDS011;20918;51.138;17.370;2022-10-28T18:15:53;14.75;;;6.45;;
34695;SDS011;20918;51.138;17.370;2022-10-28T18:19:00;12.10;;;6.72;;
34695;SDS011;20918;51.138;17.370;2022-10-28T18:22:04;14.87;;;6.85;;
34695;SDS011;20918;51.138;17.370;2022-10-28T18:25:08;17.07;;;6.92;;
34695;SDS011;20918;51.138;17.370;2022-10-28T18:28:09;13.75;;;7.30;;
34695;SDS011;20918;51.138;17.370;2022-10-28T18:31:12;10.43;;;6.95;;
34695;SDS011;20918;51.138;17.370;2022-10-28T18:34:20;18.32;;;8.58;;
34695;SDS011;20918;51.138;17.370;2022-10-28T18:37:22;21.40;;;8.90;;
34695;SDS011;20918;51.138;17.370;2022-10-28T18:40:23;11.57;;;7.50;;
34695;SDS011;20918;51.138;17.370;2022-10-28T18:43:25;18.48;;;7.65;;
34695;SDS011;20918;51.138;17.370;2022-10-28T18:46:31;14.33;;;7.08;;
34695;SDS011;20918;51.138;17.370;2022-10-28T18:49:34;13.95;;;7.10;;
34695;SDS011;20918;51.138;17.370;2022-10-28T18:52:36;10.70;;;6.33;;
34695;SDS011;20918;51.138;17.370;2022-10-28T18:55:37;13.45;;;6.83;;
34695;SDS011;20918;51.138;17.370;2022-10-28T18:58:39;12.68;;;6.70;;
34695;SDS011;20918;51.138;17.370;2022-10-28T19:01:40;11.33;;;6.78;;
34695;SDS011;20918;51.138;17.370;2022-10-28T19:04:44;13.68;;;6.50;;
34695;SDS011;20918;51.138;17.370;2022-10-28T19:07:48;12.98;;;6.85;;
34695;SDS011;20918;51.138;17.370;2022-10-28T19:10:53;13.53;;;6.75;;
34695;SDS011;20918;51.138;17.370;2022-10-28T19:14:00;16.62;;;7.87;;
34695;SDS011;20918;51.138;17.370;2022-10-28T19:17:04;11.40;;;6.70;;
34695;SDS011;20918;51.138;17.370;2022-10-28T19:20:06;14.83;;;7.05;;
34695;SDS011;20918;51.138;17.370;2022-10-28T19:23:09;24.43;;;10.68;;
34695;SDS011;20918;51.138;17.370;2022-10-28T19:26:11;15.10;;;8.18;;
34695;SDS011;20918;51.138;17.370;2022-10-28T19:29:13;15.70;;;7.70;;
34695;SDS011;20918;51.138;17.370;2022-10-28T19:32:15;16.65;;;9.95;;
34695;SDS011;20918;51.138;17.370;2022-10-28T19:35:16;15.58;;;9.05;;
34695;SDS011;20918;51.138;17.370;2022-10-28T19:38:18;18.75;;;9.55;;
34695;SDS011;20918;51.138;17.370;2022-10-28T19:41:22;15.83;;;9.48;;
34695;SDS011;20918;51.138;17.370;2022-10-28T19:44:27;25.62;;;12.35;;
34695;SDS011;20918;51.138;17.370;2022-10-28T19:47:31;52.33;;;25.15;;
34695;SDS011;20918;51.138;17.370;2022-10-28T19:50:33;37.63;;;17.05;;
34695;SDS011;20918;51.138;17.370;2022-10-28T19:53:34;20.17;;;12.80;;
34695;SDS011;20918;51.138;17.370;2022-10-28T19:56:35;15.75;;;10.10;;
34695;SDS011;20918;51.138;17.370;2022-10-28T19:59:38;20.52;;;10.45;;
34695;SDS011;20918;51.138;17.370;2022-10-28T20:02:40;18.12;;;11.40;;
34695;SDS011;20918;51.138;17.370;2022-10-28T20:05:45;21.52;;;13.28;;
34695;SDS011;20918;51.138;17.370;2022-10-28T20:08:47;13.58;;;7.75;;
34695;SDS011;20918;51.138;17.370;2022-10-28T20:11:48;14.75;;;8.83;;
34695;SDS011;20918;51.138;17.370;2022-10-28T20:14:50;14.35;;;8.88;;
34695;SDS011;20918;51.138;17.370;2022-10-28T20:17:52;15.15;;;7.80;;
34695;SDS011;20918;51.138;17.370;2022-10-28T20:20:53;16.52;;;8.10;;
34695;SDS011;20918;51.138;17.370;2022-10-28T20:23:55;12.55;;;7.50;;
34695;SDS011;20918;51.138;17.370;2022-10-28T20:26:59;17.98;;;7.67;;
34695;SDS011;20918;51.138;17.370;2022-10-28T20:30:00;20.88;;;11.40;;
34695;SDS011;20918;51.138;17.370;2022-10-28T20:33:01;15.10;;;9.03;;
34695;SDS011;20918;51.138;17.370;2022-10-28T20:36:03;21.30;;;12.73;;